sensor_id;sensor_type;location;lat;lon;timestamp;P1;durP1;ratioP1;P2;durP2;ratioP2
74612;SDS011;63119;51.788;8.824;2023-02-03T00:00:53;57.67;;;26.63;;
74612;SDS011;63119;51.788;8.824;2023-02-03T00:03:18;58.40;;;27.57;;
74612;SDS011;63119;51.788;8.824;2023-02-03T00:05:44;61.22;;;28.83;;
74612;SDS011;63119;51.788;8.824;2023-02-03T00:08:11;59.97;;;28.38;;
74612;SDS011;63119;51.788;8.824;2023-02-03T00:10:37;62.85;;;27.48;;
74612;SDS011;63119;51.788;8.824;2023-02-03T00:13:03;62.90;;;30.60;;
74612;SDS011;63119;51.788;8.824;2023-02-03T00:15:29;67.43;;;29.70;;
74612;SDS011;63119;51.788;8.824;2023-02-03T00:17:54;64.10;;;28.23;;
74612;SDS011;63119;51.788;8.824;2023-02-03T00:20:19;63.88;;;29.25;;
74612;SDS011;63119;51.788;8.824;2023-02-03T00:22:45;65.93;;;30.77;;
74612;SDS011;63119;51.788;8.824;2023-02-03T00:25:10;60.93;;;29.60;;
74612;SDS011;63119;51.788;8.824;2023-02-03T00:27:35;63.57;;;30.07;;
74612;SDS011;63119;51.788;8.824;2023-02-03T00:30:01;58.95;;;28.85;;
74612;SDS011;63119;51.788;8.824;2023-02-03T00:32:26;58.53;;;27.63;;
74612;SDS011;63119;51.788;8.824;2023-02-03T00:34:51;55.87;;;28.50;;
74612;SDS011;63119;51.788;8.824;2023-02-03T00:37:16;57.00;;;28.50;;
74612;SDS011;63119;51.788;8.824;2023-02-03T00:39:42;55.73;;;27.00;;
74612;SDS011;63119;51.788;8.824;2023-02-03T00:42:07;55.53;;;27.67;;
74612;SDS011;63119;51.788;8.824;2023-02-03T00:44:32;59.37;;;28.13;;
74612;SDS011;63119;51.788;8.824;2023-02-03T00:46:58;56.73;;;28.57;;
74612;SDS011;63119;51.788;8.824;2023-02-03T00:49:23;59.03;;;28.50;;
74612;SDS011;63119;51.788;8.824;2023-02-03T00:51:48;56.20;;;26.67;;
74612;SDS011;63119;51.788;8.824;2023-02-03T00:54:14;57.22;;;26.77;;
74612;SDS011;63119;51.788;8.824;2023-02-03T00:56:39;57.42;;;26.67;;
74612;SDS011;63119;51.788;8.824;2023-02-03T00:59:05;51.83;;;26.27;;
74612;SDS011;63119;51.788;8.824;2023-02-03T01:01:31;54.28;;;25.60;;
74612;SDS011;63119;51.788;8.824;2023-02-03T01:03:56;63.20;;;26.52;;
74612;SDS011;63119;51.788;8.824;2023-02-03T01:06:22;53.77;;;25.57;;
74612;SDS011;63119;51.788;8.824;2023-02-03T01:08:48;49.85;;;25.00;;
74612;SDS011;63119;51.788;8.824;2023-02-03T01:11:15;51.70;;;26.08;;
74612;SDS011;63119;51.788;8.824;2023-02-03T01:13:50;53.17;;;25.13;;
74612;SDS011;63119;51.788;8.824;2023-02-03T01:16:17;55.13;;;26.20;;
74612;SDS011;63119;51.788;8.824;2023-02-03T01:18:43;53.85;;;25.52;;
74612;SDS011;63119;51.788;8.824;2023-02-03T01:21:11;48.47;;;24.05;;
74612;SDS011;63119;51.788;8.824;2023-02-03T01:23:40;50.40;;;24.08;;
74612;SDS011;63119;51.788;8.824;2023-02-03T01:26:07;50.13;;;24.02;;
74612;SDS011;63119;51.788;8.824;2023-02-03T01:28:34;48.72;;;24.15;;
74612;SDS011;63119;51.788;8.824;2023-02-03T01:31:22;51.03;;;24.35;;
74612;SDS011;63119;51.788;8.824;2023-02-03T01:33:47;49.33;;;23.63;;
74612;SDS011;63119;51.788;8.824;2023-02-03T01:36:13;44.90;;;22.27;;
74612;SDS011;63119;51.788;8.824;2023-02-03T01:38:39;45.35;;;22.38;;
74612;SDS011;63119;51.788;8.824;2023-02-03T01:41:06;47.00;;;22.67;;
74612;SDS011;63119;51.788;8.824;2023-02-03T01:43:38;53.13;;;24.95;;
74612;SDS011;63119;51.788;8.824;2023-02-03T01:46:16;48.63;;;22.98;;
74612;SDS011;63119;51.788;8.824;2023-02-03T01:48:48;48.53;;;24.27;;
74612;SDS011;63119;51.788;8.824;2023-02-03T01:51:15;47.60;;;23.33;;
74612;SDS011;63119;51.788;8.824;2023-02-03T01:53:40;47.45;;;23.75;;
74612;SDS011;63119;51.788;8.824;2023-02-03T01:56:07;46.85;;;22.27;;
74612;SDS011;63119;51.788;8.824;2023-02-03T01:58:34;50.45;;;22.88;;
74612;SDS011;63119;51.788;8.824;2023-02-03T02:01:03;46.00;;;23.60;;
74612;SDS011;63119;51.788;8.824;2023-02-03T02:03:30;45.63;;;22.58;;
74612;SDS011;63119;51.788;8.824;2023-02-03T02:06:04;51.47;;;23.17;;
74612;SDS011;63119;51.788;8.824;2023-02-03T02:08:31;44.28;;;23.17;;
74612;SDS011;63119;51.788;8.824;2023-02-03T02:10:57;44.97;;;22.80;;
74612;SDS011;63119;51.788;8.824;2023-02-03T02:13:24;42.53;;;23.27;;
74612;SDS011;63119;51.788;8.824;2023-02-03T02:15:53;46.05;;;22.38;;
74612;SDS011;63119;51.788;8.824;2023-02-03T02:19:03;42.53;;;21.33;;
74612;SDS011;63119;51.788;8.824;2023-02-03T02:35:23;44.92;;;21.40;;
74612;SDS011;63119;51.788;8.824;2023-02-03T02:46:09;40.70;;;21.58;;
74612;SDS011;63119;51.788;8.824;2023-02-03T02:51:56;35.08;;;19.45;;
74612;SDS011;63119;51.788;8.824;2023-02-03T02:54:26;41.65;;;20.30;;
74612;SDS011;63119;51.788;8.824;2023-02-03T02:56:55;40.38;;;19.88;;
74612;SDS011;63119;51.788;8.824;2023-02-03T02:59:24;39.28;;;20.83;;
74612;SDS011;63119;51.788;8.824;2023-02-03T03:01:50;41.40;;;20.38;;
74612;SDS011;63119;51.788;8.824;2023-02-03T03:04:16;36.50;;;18.70;;
74612;SDS011;63119;51.788;8.824;2023-02-03T03:06:48;38.88;;;19.80;;
74612;SDS011;63119;51.788;8.824;2023-02-03T03:09:24;38.15;;;19.75;;
74612;SDS011;63119;51.788;8.824;2023-02-03T03:12:01;38.20;;;18.30;;
74612;SDS011;63119;51.788;8.824;2023-02-03T03:14:34;40.42;;;18.60;;
74612;SDS011;63119;51.788;8.824;2023-02-03T03:17:03;36.10;;;18.08;;
74612;SDS011;63119;51.788;8.824;2023-02-03T03:19:33;36.22;;;19.13;;
74612;SDS011;63119;51.788;8.824;2023-02-03T03:22:03;33.92;;;18.33;;
74612;SDS011;63119;51.788;8.824;2023-02-03T03:24:32;33.75;;;17.75;;
74612;SDS011;63119;51.788;8.824;2023-02-03T03:27:08;35.95;;;18.42;;
74612;SDS011;63119;51.788;8.824;2023-02-03T03:29:41;34.70;;;18.85;;
74612;SDS011;63119;51.788;8.824;2023-02-03T03:32:10;35.88;;;18.35;;
74612;SDS011;63119;51.788;8.824;2023-02-03T03:34:35;35.67;;;17.40;;
74612;SDS011;63119;51.788;8.824;2023-02-03T03:44:37;32.28;;;16.77;;
74612;SDS011;63119;51.788;8.824;2023-02-03T03:47:14;36.63;;;18.08;;
74612;SDS011;63119;51.788;8.824;2023-02-03T03:49:46;30.38;;;15.38;;
74612;SDS011;63119;51.788;8.824;2023-02-03T03:52:14;30.65;;;16.35;;
74612;SDS011;63119;51.788;8.824;2023-02-03T03:54:43;36.50;;;17.35;;
74612;SDS011;63119;51.788;8.824;2023-02-03T03:57:18;31.35;;;15.85;;
74612;SDS011;63119;51.788;8.824;2023-02-03T03:59:49;31.63;;;16.10;;
74612;SDS011;63119;51.788;8.824;2023-02-03T04:02:15;29.73;;;16.90;;
74612;SDS011;63119;51.788;8.824;2023-02-03T04:04:43;35.28;;;17.38;;
74612;SDS011;63119;51.788;8.824;2023-02-03T04:07:11;34.28;;;16.70;;
74612;SDS011;63119;51.788;8.824;2023-02-03T04:09:37;31.85;;;15.30;;
74612;SDS011;63119;51.788;8.824;2023-02-03T04:12:03;36.63;;;17.90;;
74612;SDS011;63119;51.788;8.824;2023-02-03T04:14:34;29.27;;;16.77;;
74612;SDS011;63119;51.788;8.824;2023-02-03T04:17:02;31.55;;;16.58;;
74612;SDS011;63119;51.788;8.824;2023-02-03T04:19:28;29.48;;;15.98;;
74612;SDS011;63119;51.788;8.824;2023-02-03T04:21:53;29.17;;;16.17;;
74612;SDS011;63119;51.788;8.824;2023-02-03T04:24:19;31.10;;;16.52;;
74612;SDS011;63119;51.788;8.824;2023-02-03T04:26:44;28.00;;;15.77;;
74612;SDS011;63119;51.788;8.824;2023-02-03T04:29:09;33.17;;;16.47;;
74612;SDS011;63119;51.788;8.824;2023-02-03T04:31:35;29.60;;;15.38;;
74612;SDS011;63119;51.788;8.824;2023-02-03T04:34:00;28.53;;;14.77;;
74612;SDS011;63119;51.788;8.824;2023-02-03T04:36:25;25.67;;;14.83;;
74612;SDS011;63119;51.788;8.824;2023-02-03T04:38:51;27.17;;;14.90;;
74612;SDS011;63119;51.788;8.824;2023-02-03T04:41:16;31.58;;;14.48;;
74612;SDS011;63119;51.788;8.824;2023-02-03T04:43:41;28.43;;;15.00;;
74612;SDS011;63119;51.788;8.824;2023-02-03T04:46:07;28.38;;;15.07;;
74612;SDS011;63119;51.788;8.824;2023-02-03T04:48:32;27.85;;;14.98;;
74612;SDS011;63119;51.788;8.824;2023-02-03T04:51:01;26.13;;;14.00;;
74612;SDS011;63119;51.788;8.824;2023-02-03T04:53:28;27.35;;;14.05;;
74612;SDS011;63119;51.788;8.824;2023-02-03T04:55:54;28.63;;;13.70;;
74612;SDS011;63119;51.788;8.824;2023-02-03T04:58:19;28.30;;;14.73;;
74612;SDS011;63119;51.788;8.824;2023-02-03T05:00:45;28.27;;;12.67;;
74612;SDS011;63119;51.788;8.824;2023-02-03T05:03:10;27.40;;;13.90;;
74612;SDS011;63119;51.788;8.824;2023-02-03T05:05:35;24.47;;;13.77;;
74612;SDS011;63119;51.788;8.824;2023-02-03T05:08:00;21.27;;;13.90;;
74612;SDS011;63119;51.788;8.824;2023-02-03T05:10:26;24.50;;;13.37;;
74612;SDS011;63119;51.788;8.824;2023-02-03T05:12:51;27.57;;;13.93;;
74612;SDS011;63119;51.788;8.824;2023-02-03T05:15:16;21.63;;;12.53;;
74612;SDS011;63119;51.788;8.824;2023-02-03T05:17:42;24.60;;;13.83;;
74612;SDS011;63119;51.788;8.824;2023-02-03T05:20:07;26.50;;;13.02;;
74612;SDS011;63119;51.788;8.824;2023-02-03T05:22:33;21.90;;;12.73;;
74612;SDS011;63119;51.788;8.824;2023-02-03T05:24:59;26.30;;;13.02;;
74612;SDS011;63119;51.788;8.824;2023-02-03T05:27:25;31.05;;;13.18;;
74612;SDS011;63119;51.788;8.824;2023-02-03T05:29:50;23.07;;;13.73;;
74612;SDS011;63119;51.788;8.824;2023-02-03T05:32:16;22.87;;;13.30;;
74612;SDS011;63119;51.788;8.824;2023-02-03T05:34:41;20.97;;;11.30;;
74612;SDS011;63119;51.788;8.824;2023-02-03T05:37:06;25.40;;;12.50;;
74612;SDS011;63119;51.788;8.824;2023-02-03T05:39:31;20.13;;;12.40;;
74612;SDS011;63119;51.788;8.824;2023-02-03T05:41:56;20.03;;;11.50;;
74612;SDS011;63119;51.788;8.824;2023-02-03T05:44:23;28.42;;;12.77;;
74612;SDS011;63119;51.788;8.824;2023-02-03T05:49:17;22.13;;;11.15;;
74612;SDS011;63119;51.788;8.824;2023-02-03T05:51:43;24.90;;;10.95;;
74612;SDS011;63119;51.788;8.824;2023-02-03T05:54:09;21.48;;;12.80;;
74612;SDS011;63119;51.788;8.824;2023-02-03T05:56:35;18.33;;;10.77;;
74612;SDS011;63119;51.788;8.824;2023-02-03T05:59:00;20.00;;;11.50;;
74612;SDS011;63119;51.788;8.824;2023-02-03T06:01:26;20.70;;;10.07;;
74612;SDS011;63119;51.788;8.824;2023-02-03T06:03:51;22.53;;;11.33;;
74612;SDS011;63119;51.788;8.824;2023-02-03T06:06:16;19.57;;;9.90;;
74612;SDS011;63119;51.788;8.824;2023-02-03T06:08:42;15.52;;;9.18;;
74612;SDS011;63119;51.788;8.824;2023-02-03T06:11:08;19.05;;;10.25;;
74612;SDS011;63119;51.788;8.824;2023-02-03T06:13:34;16.65;;;8.85;;
74612;SDS011;63119;51.788;8.824;2023-02-03T06:15:59;17.40;;;9.67;;
74612;SDS011;63119;51.788;8.824;2023-02-03T06:18:24;17.40;;;8.73;;
74612;SDS011;63119;51.788;8.824;2023-02-03T06:20:50;14.87;;;8.93;;
74612;SDS011;63119;51.788;8.824;2023-02-03T06:23:15;17.13;;;8.70;;
74612;SDS011;63119;51.788;8.824;2023-02-03T06:25:42;14.70;;;9.27;;
74612;SDS011;63119;51.788;8.824;2023-02-03T06:28:08;15.73;;;9.03;;
74612;SDS011;63119;51.788;8.824;2023-02-03T06:30:33;14.97;;;8.90;;
74612;SDS011;63119;51.788;8.824;2023-02-03T06:32:58;17.87;;;9.07;;
74612;SDS011;63119;51.788;8.824;2023-02-03T06:35:23;21.23;;;9.73;;
74612;SDS011;63119;51.788;8.824;2023-02-03T06:37:49;18.30;;;10.30;;
74612;SDS011;63119;51.788;8.824;2023-02-03T06:40:14;19.80;;;10.07;;
74612;SDS011;63119;51.788;8.824;2023-02-03T06:42:39;17.50;;;11.27;;
74612;SDS011;63119;51.788;8.824;2023-02-03T06:45:05;21.23;;;11.63;;
74612;SDS011;63119;51.788;8.824;2023-02-03T06:47:30;22.35;;;12.63;;
74612;SDS011;63119;51.788;8.824;2023-02-03T06:49:55;25.23;;;12.70;;
74612;SDS011;63119;51.788;8.824;2023-02-03T06:52:21;23.10;;;12.20;;
74612;SDS011;63119;51.788;8.824;2023-02-03T06:54:46;27.10;;;13.07;;
74612;SDS011;63119;51.788;8.824;2023-02-03T06:57:11;20.63;;;10.90;;
74612;SDS011;63119;51.788;8.824;2023-02-03T06:59:36;28.03;;;12.97;;
74612;SDS011;63119;51.788;8.824;2023-02-03T07:02:02;26.17;;;13.53;;
74612;SDS011;63119;51.788;8.824;2023-02-03T07:04:27;23.08;;;12.65;;
74612;SDS011;63119;51.788;8.824;2023-02-03T07:06:54;20.85;;;13.07;;
74612;SDS011;63119;51.788;8.824;2023-02-03T07:09:19;26.17;;;13.38;;
74612;SDS011;63119;51.788;8.824;2023-02-03T07:11:45;23.60;;;13.60;;
74612;SDS011;63119;51.788;8.824;2023-02-03T07:14:10;27.67;;;14.47;;
74612;SDS011;63119;51.788;8.824;2023-02-03T07:16:35;30.17;;;14.47;;
74612;SDS011;63119;51.788;8.824;2023-02-03T07:19:01;26.48;;;13.82;;
74612;SDS011;63119;51.788;8.824;2023-02-03T07:21:27;28.85;;;14.32;;
74612;SDS011;63119;51.788;8.824;2023-02-03T07:23:52;30.50;;;15.13;;
74612;SDS011;63119;51.788;8.824;2023-02-03T07:26:18;24.88;;;15.38;;
74612;SDS011;63119;51.788;8.824;2023-02-03T07:28:43;26.43;;;14.20;;
74612;SDS011;63119;51.788;8.824;2023-02-03T07:31:09;23.45;;;13.75;;
74612;SDS011;63119;51.788;8.824;2023-02-03T07:33:35;24.27;;;13.52;;
74612;SDS011;63119;51.788;8.824;2023-02-03T07:36:01;23.23;;;14.15;;
74612;SDS011;63119;51.788;8.824;2023-02-03T07:38:27;25.30;;;14.52;;
74612;SDS011;63119;51.788;8.824;2023-02-03T07:40:53;22.60;;;13.43;;
74612;SDS011;63119;51.788;8.824;2023-02-03T07:43:18;25.43;;;15.00;;
74612;SDS011;63119;51.788;8.824;2023-02-03T07:45:44;27.90;;;14.82;;
74612;SDS011;63119;51.788;8.824;2023-02-03T07:48:10;26.77;;;14.55;;
74612;SDS011;63119;51.788;8.824;2023-02-03T07:50:36;27.35;;;14.57;;
74612;SDS011;63119;51.788;8.824;2023-02-03T07:53:01;25.85;;;15.10;;
74612;SDS011;63119;51.788;8.824;2023-02-03T07:55:27;27.27;;;16.35;;
74612;SDS011;63119;51.788;8.824;2023-02-03T07:57:54;26.15;;;14.15;;
74612;SDS011;63119;51.788;8.824;2023-02-03T08:00:19;25.98;;;15.18;;
74612;SDS011;63119;51.788;8.824;2023-02-03T08:02:45;28.65;;;15.27;;
74612;SDS011;63119;51.788;8.824;2023-02-03T08:05:11;28.42;;;16.17;;
74612;SDS011;63119;51.788;8.824;2023-02-03T08:07:37;25.95;;;15.82;;
74612;SDS011;63119;51.788;8.824;2023-02-03T08:10:03;24.48;;;15.15;;
74612;SDS011;63119;51.788;8.824;2023-02-03T08:12:29;26.65;;;15.60;;
74612;SDS011;63119;51.788;8.824;2023-02-03T08:14:55;25.93;;;14.67;;
74612;SDS011;63119;51.788;8.824;2023-02-03T08:17:20;24.30;;;14.63;;
74612;SDS011;63119;51.788;8.824;2023-02-03T08:19:46;26.80;;;15.32;;
74612;SDS011;63119;51.788;8.824;2023-02-03T08:22:11;29.07;;;15.13;;
74612;SDS011;63119;51.788;8.824;2023-02-03T08:24:40;21.23;;;13.75;;
74612;SDS011;63119;51.788;8.824;2023-02-03T08:27:09;26.98;;;15.10;;
74612;SDS011;63119;51.788;8.824;2023-02-03T08:29:35;29.45;;;15.30;;
74612;SDS011;63119;51.788;8.824;2023-02-03T08:32:00;30.17;;;16.70;;
74612;SDS011;63119;51.788;8.824;2023-02-03T08:34:25;30.83;;;15.33;;
74612;SDS011;63119;51.788;8.824;2023-02-03T08:36:50;28.00;;;15.70;;
74612;SDS011;63119;51.788;8.824;2023-02-03T08:39:16;26.33;;;15.20;;
74612;SDS011;63119;51.788;8.824;2023-02-03T08:41:41;27.43;;;15.33;;
74612;SDS011;63119;51.788;8.824;2023-02-03T08:44:06;30.20;;;14.97;;
74612;SDS011;63119;51.788;8.824;2023-02-03T08:46:31;30.33;;;14.97;;
74612;SDS011;63119;51.788;8.824;2023-02-03T08:48:57;31.23;;;16.50;;
74612;SDS011;63119;51.788;8.824;2023-02-03T08:51:22;26.60;;;14.47;;
74612;SDS011;63119;51.788;8.824;2023-02-03T08:53:48;26.27;;;14.95;;
74612;SDS011;63119;51.788;8.824;2023-02-03T08:56:13;26.73;;;14.70;;
74612;SDS011;63119;51.788;8.824;2023-02-03T08:58:39;25.53;;;14.00;;
74612;SDS011;63119;51.788;8.824;2023-02-03T09:01:14;28.15;;;13.13;;
74612;SDS011;63119;51.788;8.824;2023-02-03T09:03:39;27.88;;;14.25;;
74612;SDS011;63119;51.788;8.824;2023-02-03T09:06:06;32.95;;;14.07;;
74612;SDS011;63119;51.788;8.824;2023-02-03T09:08:32;25.23;;;13.77;;
74612;SDS011;63119;51.788;8.824;2023-02-03T09:10:57;24.77;;;12.87;;
74612;SDS011;63119;51.788;8.824;2023-02-03T09:13:22;27.00;;;14.32;;
74612;SDS011;63119;51.788;8.824;2023-02-03T09:15:48;25.13;;;13.83;;
74612;SDS011;63119;51.788;8.824;2023-02-03T09:18:13;20.30;;;12.30;;
74612;SDS011;63119;51.788;8.824;2023-02-03T09:20:38;22.87;;;12.83;;
74612;SDS011;63119;51.788;8.824;2023-02-03T09:23:03;23.60;;;12.57;;
74612;SDS011;63119;51.788;8.824;2023-02-03T09:25:29;25.65;;;13.10;;
74612;SDS011;63119;51.788;8.824;2023-02-03T09:27:54;25.43;;;12.67;;
74612;SDS011;63119;51.788;8.824;2023-02-03T09:30:20;26.73;;;12.33;;
74612;SDS011;63119;51.788;8.824;2023-02-03T09:32:45;20.53;;;11.73;;
74612;SDS011;63119;51.788;8.824;2023-02-03T09:35:13;21.67;;;12.27;;
74612;SDS011;63119;51.788;8.824;2023-02-03T09:37:39;19.83;;;11.57;;
74612;SDS011;63119;51.788;8.824;2023-02-03T09:40:04;21.00;;;11.10;;
74612;SDS011;63119;51.788;8.824;2023-02-03T09:42:42;25.73;;;12.75;;
74612;SDS011;63119;51.788;8.824;2023-02-03T09:45:26;19.73;;;11.63;;
74612;SDS011;63119;51.788;8.824;2023-02-03T09:47:54;24.35;;;11.25;;
74612;SDS011;63119;51.788;8.824;2023-02-03T09:50:25;19.55;;;10.63;;
74612;SDS011;63119;51.788;8.824;2023-02-03T09:52:54;21.88;;;12.13;;
74612;SDS011;63119;51.788;8.824;2023-02-03T09:55:25;19.95;;;11.38;;
74612;SDS011;63119;51.788;8.824;2023-02-03T09:58:02;18.10;;;10.10;;
74612;SDS011;63119;51.788;8.824;2023-02-03T10:06:15;26.13;;;12.32;;
74612;SDS011;63119;51.788;8.824;2023-02-03T10:14:45;19.08;;;11.27;;
74612;SDS011;63119;51.788;8.824;2023-02-03T10:17:38;18.85;;;10.60;;
74612;SDS011;63119;51.788;8.824;2023-02-03T10:22:49;16.58;;;9.63;;
74612;SDS011;63119;51.788;8.824;2023-02-03T10:25:19;22.15;;;9.68;;
74612;SDS011;63119;51.788;8.824;2023-02-03T10:27:52;20.45;;;10.40;;
74612;SDS011;63119;51.788;8.824;2023-02-03T10:30:24;18.60;;;8.82;;
74612;SDS011;63119;51.788;8.824;2023-02-03T10:32:59;16.58;;;8.48;;
74612;SDS011;63119;51.788;8.824;2023-02-03T10:40:50;21.88;;;9.02;;
74612;SDS011;63119;51.788;8.824;2023-02-03T10:43:15;13.23;;;7.43;;
74612;SDS011;63119;51.788;8.824;2023-02-03T10:45:59;15.90;;;7.95;;
74612;SDS011;63119;51.788;8.824;2023-02-03T10:48:24;14.60;;;7.17;;
74612;SDS011;63119;51.788;8.824;2023-02-03T10:50:50;17.85;;;7.45;;
74612;SDS011;63119;51.788;8.824;2023-02-03T10:55:41;12.73;;;6.83;;
74612;SDS011;63119;51.788;8.824;2023-02-03T10:58:10;18.33;;;7.75;;
74612;SDS011;63119;51.788;8.824;2023-02-03T11:05:36;17.27;;;8.02;;
74612;SDS011;63119;51.788;8.824;2023-02-03T11:08:02;22.70;;;7.87;;
74612;SDS011;63119;51.788;8.824;2023-02-03T11:10:28;13.73;;;7.70;;
74612;SDS011;63119;51.788;8.824;2023-02-03T11:13:11;13.05;;;6.93;;
74612;SDS011;63119;51.788;8.824;2023-02-03T11:18:30;14.57;;;7.03;;
74612;SDS011;63119;51.788;8.824;2023-02-03T11:21:05;15.48;;;6.97;;
74612;SDS011;63119;51.788;8.824;2023-02-03T11:23:34;15.57;;;7.30;;
74612;SDS011;63119;51.788;8.824;2023-02-03T11:26:10;14.70;;;7.13;;
74612;SDS011;63119;51.788;8.824;2023-02-03T11:28:40;18.90;;;7.20;;
74612;SDS011;63119;51.788;8.824;2023-02-03T11:31:14;14.55;;;6.93;;
74612;SDS011;63119;51.788;8.824;2023-02-03T11:33:45;13.93;;;6.68;;
74612;SDS011;63119;51.788;8.824;2023-02-03T11:36:12;12.85;;;6.38;;
74612;SDS011;63119;51.788;8.824;2023-02-03T11:38:38;13.52;;;6.72;;
74612;SDS011;63119;51.788;8.824;2023-02-03T11:41:08;16.60;;;6.07;;
74612;SDS011;63119;51.788;8.824;2023-02-03T11:43:39;18.20;;;6.68;;
74612;SDS011;63119;51.788;8.824;2023-02-03T11:46:05;12.85;;;6.97;;
74612;SDS011;63119;51.788;8.824;2023-02-03T11:51:36;13.60;;;6.45;;
74612;SDS011;63119;51.788;8.824;2023-02-03T11:59:52;14.57;;;5.93;;
74612;SDS011;63119;51.788;8.824;2023-02-03T12:11:32;12.65;;;4.38;;
74612;SDS011;63119;51.788;8.824;2023-02-03T12:23:09;10.70;;;4.28;;
74612;SDS011;63119;51.788;8.824;2023-02-03T12:31:03;10.65;;;3.25;;
74612;SDS011;63119;51.788;8.824;2023-02-03T12:33:43;16.33;;;5.32;;
74612;SDS011;63119;51.788;8.824;2023-02-03T12:36:17;9.07;;;4.07;;
74612;SDS011;63119;51.788;8.824;2023-02-03T12:38:52;13.65;;;4.10;;
74612;SDS011;63119;51.788;8.824;2023-02-03T12:41:23;8.27;;;5.03;;
74612;SDS011;63119;51.788;8.824;2023-02-03T12:43:53;13.27;;;3.92;;
74612;SDS011;63119;51.788;8.824;2023-02-03T12:46:42;10.80;;;2.97;;
74612;SDS011;63119;51.788;8.824;2023-02-03T12:52:02;9.63;;;4.25;;
74612;SDS011;63119;51.788;8.824;2023-02-03T12:57:28;15.93;;;3.55;;
74612;SDS011;63119;51.788;8.824;2023-02-03T13:02:56;15.20;;;3.70;;
74612;SDS011;63119;51.788;8.824;2023-02-03T13:05:37;17.40;;;4.63;;
74612;SDS011;63119;51.788;8.824;2023-02-03T13:08:10;15.05;;;5.20;;
74612;SDS011;63119;51.788;8.824;2023-02-03T13:10:44;17.70;;;5.10;;
74612;SDS011;63119;51.788;8.824;2023-02-03T13:13:15;15.40;;;3.63;;
74612;SDS011;63119;51.788;8.824;2023-02-03T13:15:46;14.90;;;3.30;;
74612;SDS011;63119;51.788;8.824;2023-02-03T13:18:23;9.30;;;3.03;;
74612;SDS011;63119;51.788;8.824;2023-02-03T13:20:53;15.57;;;3.55;;
74612;SDS011;63119;51.788;8.824;2023-02-03T13:23:19;19.58;;;3.80;;
74612;SDS011;63119;51.788;8.824;2023-02-03T13:28:28;16.55;;;5.57;;
74612;SDS011;63119;51.788;8.824;2023-02-03T13:41:55;14.13;;;4.05;;
74612;SDS011;63119;51.788;8.824;2023-02-03T13:44:35;17.58;;;5.28;;
74612;SDS011;63119;51.788;8.824;2023-02-03T13:47:02;16.60;;;4.32;;
74612;SDS011;63119;51.788;8.824;2023-02-03T13:49:29;14.90;;;3.83;;
74612;SDS011;63119;51.788;8.824;2023-02-03T13:51:57;15.55;;;4.03;;
74612;SDS011;63119;51.788;8.824;2023-02-03T13:54:27;8.60;;;3.88;;
74612;SDS011;63119;51.788;8.824;2023-02-03T13:56:56;17.45;;;3.70;;
74612;SDS011;63119;51.788;8.824;2023-02-03T14:09:54;13.98;;;2.83;;
74612;SDS011;63119;51.788;8.824;2023-02-03T14:17:55;15.45;;;2.58;;
74612;SDS011;63119;51.788;8.824;2023-02-03T14:20:40;16.17;;;3.47;;
74612;SDS011;63119;51.788;8.824;2023-02-03T14:23:13;21.92;;;4.35;;
74612;SDS011;63119;51.788;8.824;2023-02-03T14:28:17;16.73;;;3.85;;
74612;SDS011;63119;51.788;8.824;2023-02-03T14:36:30;15.35;;;3.38;;
74612;SDS011;63119;51.788;8.824;2023-02-03T14:47:48;20.63;;;3.38;;
74612;SDS011;63119;51.788;8.824;2023-02-03T14:50:27;13.27;;;3.08;;
74612;SDS011;63119;51.788;8.824;2023-02-03T14:58:28;15.30;;;2.67;;
74612;SDS011;63119;51.788;8.824;2023-02-03T15:00:56;14.27;;;2.95;;
74612;SDS011;63119;51.788;8.824;2023-02-03T15:03:23;13.13;;;2.95;;
74612;SDS011;63119;51.788;8.824;2023-02-03T15:08:29;23.10;;;3.40;;
74612;SDS011;63119;51.788;8.824;2023-02-03T15:10:57;15.93;;;3.60;;
74612;SDS011;63119;51.788;8.824;2023-02-03T15:13:26;13.80;;;4.10;;
74612;SDS011;63119;51.788;8.824;2023-02-03T15:15:57;11.57;;;3.45;;
74612;SDS011;63119;51.788;8.824;2023-02-03T15:18:30;16.65;;;3.10;;
74612;SDS011;63119;51.788;8.824;2023-02-03T15:20:55;21.30;;;3.15;;
74612;SDS011;63119;51.788;8.824;2023-02-03T15:23:22;18.88;;;3.20;;
74612;SDS011;63119;51.788;8.824;2023-02-03T15:26:07;22.50;;;3.22;;
74612;SDS011;63119;51.788;8.824;2023-02-03T15:28:36;16.75;;;3.70;;
74612;SDS011;63119;51.788;8.824;2023-02-03T15:31:03;25.00;;;5.20;;
74612;SDS011;63119;51.788;8.824;2023-02-03T15:33:34;12.35;;;2.95;;
74612;SDS011;63119;51.788;8.824;2023-02-03T15:36:06;16.38;;;4.25;;
74612;SDS011;63119;51.788;8.824;2023-02-03T15:38:40;16.15;;;3.20;;
74612;SDS011;63119;51.788;8.824;2023-02-03T15:41:12;14.50;;;3.28;;
74612;SDS011;63119;51.788;8.824;2023-02-03T15:43:45;19.40;;;3.97;;
74612;SDS011;63119;51.788;8.824;2023-02-03T15:46:19;16.48;;;2.72;;
74612;SDS011;63119;51.788;8.824;2023-02-03T15:48:57;16.35;;;2.97;;
74612;SDS011;63119;51.788;8.824;2023-02-03T15:51:31;15.35;;;3.38;;
74612;SDS011;63119;51.788;8.824;2023-02-03T15:56:56;16.08;;;3.13;;
74612;SDS011;63119;51.788;8.824;2023-02-03T15:59:34;11.07;;;3.42;;
74612;SDS011;63119;51.788;8.824;2023-02-03T16:02:01;14.98;;;3.35;;
74612;SDS011;63119;51.788;8.824;2023-02-03T16:04:38;13.48;;;2.67;;
74612;SDS011;63119;51.788;8.824;2023-02-03T16:07:03;12.47;;;2.67;;
74612;SDS011;63119;51.788;8.824;2023-02-03T16:09:30;20.92;;;3.60;;
74612;SDS011;63119;51.788;8.824;2023-02-03T16:12:04;13.15;;;2.63;;
74612;SDS011;63119;51.788;8.824;2023-02-03T16:14:40;19.17;;;3.30;;
74612;SDS011;63119;51.788;8.824;2023-02-03T16:22:37;16.95;;;2.70;;
74612;SDS011;63119;51.788;8.824;2023-02-03T16:25:14;16.75;;;3.13;;
74612;SDS011;63119;51.788;8.824;2023-02-03T16:27:44;15.50;;;2.75;;
74612;SDS011;63119;51.788;8.824;2023-02-03T16:30:37;19.23;;;3.08;;
74612;SDS011;63119;51.788;8.824;2023-02-03T16:33:22;16.23;;;2.42;;
74612;SDS011;63119;51.788;8.824;2023-02-03T16:36:10;14.40;;;3.38;;
74612;SDS011;63119;51.788;8.824;2023-02-03T16:38:56;12.13;;;2.63;;
74612;SDS011;63119;51.788;8.824;2023-02-03T16:41:44;15.88;;;2.53;;
74612;SDS011;63119;51.788;8.824;2023-02-03T16:44:28;10.80;;;2.80;;
74612;SDS011;63119;51.788;8.824;2023-02-03T16:47:25;18.08;;;3.03;;
74612;SDS011;63119;51.788;8.824;2023-02-03T16:50:12;23.60;;;4.65;;
74612;SDS011;63119;51.788;8.824;2023-02-03T16:52:57;15.40;;;3.55;;
74612;SDS011;63119;51.788;8.824;2023-02-03T16:55:23;13.80;;;3.90;;
74612;SDS011;63119;51.788;8.824;2023-02-03T16:57:51;17.85;;;3.55;;
74612;SDS011;63119;51.788;8.824;2023-02-03T17:00:17;15.67;;;4.57;;
74612;SDS011;63119;51.788;8.824;2023-02-03T17:02:44;13.23;;;3.00;;
74612;SDS011;63119;51.788;8.824;2023-02-03T17:05:10;13.47;;;3.23;;
74612;SDS011;63119;51.788;8.824;2023-02-03T17:07:35;19.17;;;3.43;;
74612;SDS011;63119;51.788;8.824;2023-02-03T17:10:00;13.87;;;3.73;;
74612;SDS011;63119;51.788;8.824;2023-02-03T17:12:25;17.57;;;3.70;;
74612;SDS011;63119;51.788;8.824;2023-02-03T17:14:54;18.65;;;3.83;;
74612;SDS011;63119;51.788;8.824;2023-02-03T17:17:21;18.75;;;3.17;;
74612;SDS011;63119;51.788;8.824;2023-02-03T17:19:46;22.90;;;3.95;;
74612;SDS011;63119;51.788;8.824;2023-02-03T17:22:12;23.53;;;4.23;;
74612;SDS011;63119;51.788;8.824;2023-02-03T17:24:37;15.82;;;3.08;;